createdAt,value
2022-08-16T00:02:03.565Z,13.73
2022-08-16T00:05:15.011Z,14.47
2022-08-16T00:08:36.120Z,14.60
2022-08-16T00:11:40.557Z,15.43
2022-08-16T00:14:42.381Z,14.23
2022-08-16T00:17:56.240Z,14.23
2022-08-16T00:20:59.074Z,13.90
2022-08-16T00:24:04.604Z,13.57
2022-08-16T00:27:06.977Z,14.17
2022-08-16T00:30:25.945Z,14.10
2022-08-16T00:33:30.779Z,13.80
2022-08-16T00:36:32.547Z,13.50
2022-08-16T00:39:34.536Z,13.47
2022-08-16T00:42:36.332Z,14.00
2022-08-16T00:45:55.453Z,12.77
2022-08-16T00:49:00.978Z,14.80
2022-08-16T00:52:04.362Z,13.40
2022-08-16T00:55:26.690Z,13.83
2022-08-16T00:58:42.719Z,13.63
2022-08-16T01:01:45.440Z,14.23
2022-08-16T01:05:11.241Z,13.70
2022-08-16T01:08:35.793Z,13.83
2022-08-16T01:11:34.563Z,14.10
2022-08-16T01:14:58.272Z,13.63
2022-08-16T01:18:01.062Z,13.70
2022-08-16T01:21:12.635Z,13.77
2022-08-16T01:24:51.665Z,12.93
2022-08-16T01:27:48.397Z,13.47
2022-08-16T01:30:52.268Z,14.10
2022-08-16T01:33:53.922Z,14.30
2022-08-16T01:37:01.383Z,14.17
2022-08-16T01:40:07.130Z,14.63
2022-08-16T01:43:09.569Z,13.93
2022-08-16T01:46:37.684Z,14.73
2022-08-16T01:50:42.407Z,13.53
2022-08-16T01:53:06.576Z,13.97
2022-08-16T01:56:32.272Z,14.07
2022-08-16T01:59:37.203Z,14.27
2022-08-16T02:02:45.484Z,13.97
2022-08-16T02:05:54.295Z,14.00
2022-08-16T02:08:56.182Z,13.83
2022-08-16T02:11:59.304Z,14.20
2022-08-16T02:15:25.222Z,13.93
2022-08-16T02:18:28.864Z,13.83
2022-08-16T02:21:33.680Z,14.27
2022-08-16T02:24:40.906Z,14.00
2022-08-16T02:27:45.179Z,14.03
2022-08-16T02:30:54.241Z,14.10
2022-08-16T02:33:56.069Z,15.13
2022-08-16T02:37:05.066Z,14.47
2022-08-16T02:40:10.313Z,14.80
2022-08-16T02:43:13.651Z,15.53
2022-08-16T02:46:17.389Z,14.67
2022-08-16T02:49:19.362Z,15.00
2022-08-16T02:52:29.204Z,14.10
2022-08-16T02:55:41.252Z,14.40
2022-08-16T02:58:50.120Z,14.50
2022-08-16T03:01:52.133Z,15.43
2022-08-16T03:05:02.238Z,14.10
2022-08-16T03:08:04.675Z,14.23
2022-08-16T03:11:16.555Z,13.80
2022-08-16T03:14:21.258Z,14.50
2022-08-16T03:17:32.396Z,13.90
2022-08-16T03:20:37.207Z,13.83
2022-08-16T03:23:40.333Z,13.80
2022-08-16T03:26:45.256Z,14.17
2022-08-16T03:29:54.383Z,14.67
2022-08-16T03:32:58.279Z,13.87
2022-08-16T03:36:30.238Z,13.77
2022-08-16T03:39:31.745Z,13.87
2022-08-16T03:42:33.987Z,14.37
2022-08-16T03:45:58.414Z,13.83
2022-08-16T03:49:05.218Z,13.00
2022-08-16T03:52:09.522Z,13.47
2022-08-16T03:55:15.272Z,14.97
2022-08-16T03:58:18.101Z,13.97
2022-08-16T04:01:21.145Z,14.63
2022-08-16T04:04:32.713Z,14.07
2022-08-16T04:07:36.991Z,14.43
2022-08-16T04:10:41.172Z,14.40
2022-08-16T04:14:01.799Z,14.27
2022-08-16T04:17:11.275Z,13.50
2022-08-16T04:20:31.137Z,13.27
2022-08-16T04:23:39.134Z,13.00
2022-08-16T04:26:46.084Z,14.03
2022-08-16T04:29:48.977Z,14.00
2022-08-16T04:32:55.707Z,13.60
2022-08-16T04:35:59.168Z,13.87
2022-08-16T04:39:03.258Z,13.03
2022-08-16T04:42:11.327Z,12.73
2022-08-16T04:45:14.950Z,12.53
2022-08-16T04:48:22.090Z,12.33
2022-08-16T04:51:36.628Z,12.87
2022-08-16T04:54:43.123Z,13.33
2022-08-16T04:57:46.061Z,12.17
2022-08-16T05:00:56.011Z,11.80
2022-08-16T05:04:00.892Z,12.70
2022-08-16T05:07:20.349Z,12.63
2022-08-16T05:10:42.966Z,11.20
2022-08-16T05:13:46.342Z,12.10
2022-08-16T05:16:54.685Z,10.10
2022-08-16T05:19:57.324Z,11.77
2022-08-16T05:23:04.737Z,11.57
2022-08-16T05:26:19.832Z,12.10
2022-08-16T05:29:24.856Z,10.53
2022-08-16T05:32:49.726Z,12.80
2022-08-16T05:35:54.867Z,10.80
2022-08-16T05:39:14.336Z,11.27
2022-08-16T05:42:19.753Z,11.60
2022-08-16T05:45:23.747Z,10.60
2022-08-16T05:48:29.732Z,10.73
2022-08-16T05:51:38.569Z,11.27
2022-08-16T05:54:47.284Z,10.90
2022-08-16T05:57:52.934Z,10.90
2022-08-16T06:00:56.045Z,10.67
2022-08-16T06:03:59.935Z,10.03
2022-08-16T06:07:24.286Z,10.40
2022-08-16T06:10:33.339Z,10.23
2022-08-16T06:13:42.240Z,9.27
2022-08-16T06:16:50.570Z,9.67
2022-08-16T06:19:54.435Z,14.13
2022-08-16T06:23:04.164Z,8.95
2022-08-16T06:26:45.993Z,9.77
2022-08-16T06:30:03.148Z,9.57
2022-08-16T06:33:05.883Z,8.80
2022-08-16T06:36:14.568Z,8.52
2022-08-16T06:39:21.637Z,8.50
2022-08-16T06:42:47.094Z,9.50
2022-08-16T06:46:20.882Z,8.38
2022-08-16T06:49:23.519Z,9.18
2022-08-16T06:52:57.799Z,8.05
2022-08-16T06:55:47.705Z,9.10
2022-08-16T06:58:57.659Z,9.00
2022-08-16T07:02:04.862Z,8.38
2022-08-16T07:05:42.070Z,8.38
2022-08-16T07:08:52.852Z,9.07
2022-08-16T07:11:54.698Z,10.90
2022-08-16T07:15:08.507Z,10.02
2022-08-16T07:18:20.487Z,8.93
2022-08-16T07:21:22.626Z,8.82
2022-08-16T07:24:30.180Z,8.63
2022-08-16T07:27:37.681Z,8.75
2022-08-16T07:30:47.032Z,8.80
2022-08-16T07:34:03.560Z,9.30
2022-08-16T07:37:12.746Z,11.90
2022-08-16T07:41:00.223Z,9.30
2022-08-16T07:43:59.964Z,9.82
2022-08-16T07:47:03.968Z,9.48
2022-08-16T07:50:07.675Z,9.73
2022-08-16T07:53:10.523Z,9.93
2022-08-16T07:56:14.266Z,9.75
2022-08-16T07:59:16.499Z,10.10
2022-08-16T08:02:20.299Z,9.20
2022-08-16T08:05:35.809Z,9.30
2022-08-16T08:08:51.616Z,9.95
2022-08-16T08:12:01.189Z,9.18
2022-08-16T08:15:11.299Z,9.15
2022-08-16T08:18:30.294Z,9.13
2022-08-16T08:21:58.921Z,8.95
2022-08-16T08:25:04.221Z,9.15
2022-08-16T08:28:10.966Z,8.75
2022-08-16T08:31:17.207Z,8.48
2022-08-16T08:34:21.190Z,7.78
2022-08-16T08:37:25.542Z,8.50
2022-08-16T08:40:30.947Z,9.05
2022-08-16T08:43:41.294Z,9.35
2022-08-16T08:46:44.715Z,9.02
2022-08-16T08:50:03.234Z,8.20
2022-08-16T08:53:08.177Z,9.07
2022-08-16T08:56:23.587Z,8.25
2022-08-16T08:59:40.877Z,9.13
2022-08-16T09:02:52.239Z,8.75
2022-08-16T09:05:54.692Z,14.65
2022-08-16T09:08:57.241Z,8.50
2022-08-16T09:12:06.558Z,9.15
2022-08-16T09:15:23.860Z,9.38
2022-08-16T09:18:35.597Z,10.32
2022-08-16T09:21:39.339Z,9.50
2022-08-16T09:24:52.780Z,9.98
2022-08-16T09:28:02.168Z,10.20
2022-08-16T09:31:06.858Z,9.82
2022-08-16T09:34:18.647Z,10.02
2022-08-16T09:37:21.197Z,10.20
2022-08-16T09:40:42.887Z,10.05
2022-08-16T09:44:00.665Z,9.68
2022-08-16T09:47:03.969Z,9.68
2022-08-16T09:50:13.027Z,10.07
2022-08-16T09:53:24.469Z,10.07
2022-08-16T09:56:28.862Z,10.00
2022-08-16T09:59:38.672Z,10.50
2022-08-16T10:02:44.283Z,10.20
2022-08-16T10:05:50.060Z,10.07
2022-08-16T10:09:05.997Z,9.70
2022-08-16T10:12:28.318Z,10.13
2022-08-16T10:15:31.130Z,9.48
2022-08-16T10:19:02.351Z,9.27
2022-08-16T10:21:57.223Z,9.25
2022-08-16T10:25:00.317Z,8.45
2022-08-16T10:28:28.249Z,7.07
2022-08-16T10:31:45.571Z,7.28
2022-08-16T10:34:45.549Z,7.20
2022-08-16T10:37:53.241Z,8.38
2022-08-16T10:40:54.976Z,7.40
2022-08-16T10:43:56.690Z,8.07
2022-08-16T10:46:58.439Z,7.65
2022-08-16T10:50:00.512Z,6.80
2022-08-16T10:53:07.446Z,7.00
2022-08-16T10:56:52.414Z,7.57
2022-08-16T10:59:45.911Z,9.30
2022-08-16T11:02:57.909Z,8.15
2022-08-16T11:06:03.253Z,7.60
2022-08-16T11:09:24.721Z,7.72
2022-08-16T11:12:27.835Z,8.13
2022-08-16T11:15:31.116Z,8.40
2022-08-16T11:19:03.567Z,7.80
2022-08-16T11:22:39.635Z,8.15
2022-08-16T11:32:06.141Z,8.40
2022-08-16T11:35:15.012Z,8.05
2022-08-16T11:38:46.760Z,8.00
2022-08-16T11:41:43.639Z,8.02
2022-08-16T11:44:52.816Z,8.18
2022-08-16T11:47:57.673Z,8.10
2022-08-16T11:50:59.670Z,8.18
2022-08-16T11:54:01.507Z,7.55
2022-08-16T11:57:09.145Z,8.10
2022-08-16T12:00:42.630Z,8.63
2022-08-16T12:03:35.793Z,8.30
2022-08-16T12:06:37.820Z,8.65
2022-08-16T12:09:43.375Z,8.82
2022-08-16T12:12:46.701Z,8.38
2022-08-16T12:15:48.722Z,8.68
2022-08-16T12:18:52.167Z,9.27
2022-08-16T12:21:58.511Z,8.10
2022-08-16T12:25:01.239Z,8.10
2022-08-16T12:28:03.802Z,9.10
2022-08-16T12:31:05.610Z,8.40
2022-08-16T12:34:07.848Z,7.50
2022-08-16T12:37:11.499Z,7.88
2022-08-16T12:40:23.949Z,8.20
2022-08-16T12:43:31.239Z,7.30
2022-08-16T12:46:33.533Z,6.90
2022-08-16T12:49:41.960Z,7.05
2022-08-16T12:52:44.430Z,7.20
2022-08-16T12:55:54.850Z,7.10
2022-08-16T12:58:57.837Z,5.88
2022-08-16T13:02:01.791Z,6.47
2022-08-16T13:05:04.375Z,6.55
2022-08-16T13:08:10.128Z,6.82
2022-08-16T13:11:25.375Z,6.68
2022-08-16T13:14:33.510Z,6.53
2022-08-16T13:17:35.666Z,7.07
2022-08-16T13:20:37.547Z,9.73
2022-08-16T13:23:43.428Z,5.82
2022-08-16T13:26:45.586Z,6.25
2022-08-16T13:29:57.863Z,6.30
2022-08-16T13:32:59.791Z,7.25
2022-08-16T13:36:03.167Z,6.70
2022-08-16T13:39:05.527Z,6.80
2022-08-16T13:42:10.776Z,6.85
2022-08-16T13:45:15.479Z,6.35
2022-08-16T13:48:24.550Z,7.18
2022-08-16T13:51:29.175Z,6.65
2022-08-16T13:54:32.843Z,6.28
2022-08-16T13:58:35.695Z,6.70
2022-08-16T14:00:56.115Z,6.55
2022-08-16T14:03:58.861Z,6.63
2022-08-16T14:07:01.870Z,7.00
2022-08-16T14:10:04.731Z,6.65
2022-08-16T14:13:07.206Z,6.47
2022-08-16T14:16:24.263Z,6.18
2022-08-16T14:19:35.229Z,6.45
2022-08-16T14:22:39.963Z,6.68
2022-08-16T14:25:53.800Z,6.38
2022-08-16T14:28:57.885Z,6.28
2022-08-16T14:32:05.770Z,7.20
2022-08-16T14:35:09.865Z,6.75
2022-08-16T14:38:13.554Z,6.38
2022-08-16T14:41:20.195Z,6.75
2022-08-16T14:44:21.881Z,6.00
2022-08-16T14:47:23.577Z,5.82
2022-08-16T14:50:26.550Z,6.07
2022-08-16T14:53:29.038Z,6.13
2022-08-16T14:56:38.993Z,6.07
2022-08-16T14:59:45.997Z,5.78
2022-08-16T15:02:52.248Z,5.82
2022-08-16T15:05:55.856Z,5.93
2022-08-16T15:08:57.479Z,6.32
2022-08-16T15:12:05.515Z,6.38
2022-08-16T15:15:12.584Z,6.40
2022-08-16T15:18:23.309Z,7.28
2022-08-16T15:21:26.577Z,6.72
2022-08-16T15:24:31.087Z,6.65
2022-08-16T15:27:42.225Z,7.15
2022-08-16T15:30:59.819Z,6.28
2022-08-16T15:34:04.804Z,6.30
2022-08-16T15:37:06.494Z,8.13
2022-08-16T15:40:26.544Z,6.22
2022-08-16T15:43:39.282Z,6.30
2022-08-16T15:46:55.750Z,6.25
2022-08-16T15:49:59.956Z,6.57
2022-08-16T15:53:04.928Z,6.35
2022-08-16T15:56:12.969Z,6.32
2022-08-16T15:59:16.425Z,5.80
2022-08-16T16:02:29.694Z,6.97
2022-08-16T16:05:33.762Z,6.60
2022-08-16T16:08:35.546Z,7.35
2022-08-16T16:11:40.974Z,6.68
2022-08-16T16:14:43.435Z,6.82
2022-08-16T16:17:58.724Z,6.70
2022-08-16T16:21:20.429Z,6.15
2022-08-16T16:24:23.964Z,6.50
2022-08-16T16:27:32.549Z,6.00
2022-08-16T16:30:44.600Z,6.65
2022-08-16T16:33:57.297Z,8.43
2022-08-16T16:36:59.986Z,7.25
2022-08-16T16:40:12.748Z,6.20
2022-08-16T16:43:16.229Z,6.45
2022-08-16T16:46:40.984Z,5.50
2022-08-16T16:49:43.810Z,6.50
2022-08-16T16:52:45.828Z,6.30
2022-08-16T16:56:08.948Z,8.95
2022-08-16T16:59:25.580Z,6.57
2022-08-16T17:02:46.188Z,6.00
2022-08-16T17:06:03.254Z,6.50
2022-08-16T17:09:14.039Z,6.15
2022-08-16T17:12:46.512Z,5.88
2022-08-16T17:16:02.916Z,6.47
2022-08-16T17:19:22.074Z,6.00
2022-08-16T17:22:32.685Z,5.60
2022-08-16T17:25:36.839Z,5.60
2022-08-16T17:28:58.048Z,5.20
2022-08-16T17:32:34.147Z,5.47
2022-08-16T17:35:37.691Z,5.77
2022-08-16T17:38:44.596Z,5.20
2022-08-16T17:41:49.934Z,5.43
2022-08-16T17:44:51.639Z,6.27
2022-08-16T17:47:53.291Z,5.70
2022-08-16T17:50:55.080Z,5.30
2022-08-16T17:53:56.884Z,5.83
2022-08-16T17:57:00.431Z,5.63
2022-08-16T18:00:03.154Z,6.10
2022-08-16T18:03:24.103Z,5.50
2022-08-16T18:06:43.492Z,6.17
2022-08-16T18:09:45.218Z,5.57
2022-08-16T18:13:04.107Z,5.63
2022-08-16T18:16:08.288Z,6.00
2022-08-16T18:19:10.710Z,5.90
2022-08-16T18:22:18.371Z,5.97
2022-08-16T18:25:25.767Z,6.00
2022-08-16T18:28:29.393Z,6.17
2022-08-16T18:31:31.939Z,6.17
2022-08-16T18:34:33.797Z,6.33
2022-08-16T18:37:38.840Z,6.00
2022-08-16T18:40:51.413Z,6.07
2022-08-16T18:44:23.442Z,6.73
2022-08-16T18:47:19.998Z,6.07
2022-08-16T18:50:28.013Z,6.30
2022-08-16T18:53:53.499Z,6.63
2022-08-16T18:56:58.200Z,6.47
2022-08-16T18:59:59.988Z,7.20
2022-08-16T19:03:06.405Z,7.17
2022-08-16T19:06:13.557Z,7.07
2022-08-16T19:09:15.700Z,6.47
2022-08-16T19:12:17.354Z,7.20
2022-08-16T19:15:39.653Z,6.93
2022-08-16T19:18:41.725Z,6.53
2022-08-16T19:21:43.475Z,6.70
2022-08-16T19:24:45.163Z,7.50
2022-08-16T19:27:46.869Z,6.83
2022-08-16T19:30:50.800Z,7.53
2022-08-16T19:33:56.894Z,7.87
2022-08-16T19:36:58.644Z,8.13
2022-08-16T19:40:00.680Z,7.70
2022-08-16T19:43:02.440Z,7.90
2022-08-16T19:46:05.223Z,8.77
2022-08-16T19:49:06.953Z,8.43
2022-08-16T19:52:17.097Z,8.83
2022-08-16T19:55:22.438Z,8.20
2022-08-16T19:58:24.338Z,8.00
2022-08-16T20:01:25.970Z,8.23
2022-08-16T20:04:27.781Z,8.63
2022-08-16T20:07:29.414Z,7.67
2022-08-16T20:10:31.119Z,8.53
2022-08-16T20:13:34.124Z,7.83
2022-08-16T20:16:36.062Z,8.27
2022-08-16T20:19:40.586Z,8.57
2022-08-16T20:22:53.548Z,8.07
2022-08-16T20:25:56.025Z,8.20
2022-08-16T20:28:57.746Z,8.37
2022-08-16T20:31:59.525Z,8.40
2022-08-16T20:35:01.854Z,8.20
2022-08-16T20:38:04.288Z,8.03
2022-08-16T20:41:06.040Z,8.20
2022-08-16T20:44:10.100Z,8.00
2022-08-16T20:47:11.949Z,7.77
2022-08-16T20:50:13.705Z,8.10
2022-08-16T20:53:15.413Z,8.50
2022-08-16T20:56:18.597Z,7.77
2022-08-16T20:59:20.302Z,8.80
2022-08-16T21:02:27.255Z,8.57
2022-08-16T21:05:31.130Z,8.60
2022-08-16T21:08:51.591Z,8.60
2022-08-16T21:11:57.613Z,8.80
2022-08-16T21:15:08.370Z,8.33
2022-08-16T21:18:10.833Z,8.83
2022-08-16T21:21:13.109Z,9.40
2022-08-16T21:24:17.273Z,8.70
2022-08-16T21:27:19.495Z,8.83
2022-08-16T21:30:27.972Z,9.37
2022-08-16T21:33:34.697Z,9.20
2022-08-16T21:36:37.107Z,9.00
2022-08-16T21:39:39.948Z,8.97
2022-08-16T21:42:42.955Z,9.17
2022-08-16T21:45:45.645Z,9.57
2022-08-16T21:48:47.795Z,9.07
2022-08-16T21:51:51.304Z,9.50
2022-08-16T21:54:56.413Z,9.77
2022-08-16T21:57:59.024Z,9.70
2022-08-16T22:01:01.897Z,9.23
2022-08-16T22:04:37.821Z,10.17
2022-08-16T22:07:27.757Z,9.27
2022-08-16T22:11:06.449Z,9.47
2022-08-16T22:13:58.045Z,9.93
2022-08-16T22:17:01.185Z,9.67
2022-08-16T22:20:04.347Z,9.73
2022-08-16T22:23:11.023Z,9.03
2022-08-16T22:26:14.731Z,9.37
2022-08-16T22:29:16.377Z,9.53
2022-08-16T22:32:18.081Z,9.57
2022-08-16T22:35:19.755Z,10.03
2022-08-16T22:38:53.758Z,9.70
2022-08-16T22:41:45.605Z,9.37
2022-08-16T22:44:47.733Z,9.90
2022-08-16T22:47:49.978Z,9.67
2022-08-16T22:50:51.661Z,9.17
2022-08-16T22:53:53.761Z,9.80
2022-08-16T22:56:57.375Z,9.40
2022-08-16T22:59:59.127Z,10.10
2022-08-16T23:03:00.843Z,10.30
2022-08-16T23:06:02.889Z,9.70
2022-08-16T23:09:04.574Z,9.23
2022-08-16T23:12:07.511Z,9.30
2022-08-16T23:15:09.470Z,9.07
2022-08-16T23:18:15.909Z,9.90
2022-08-16T23:21:18.101Z,9.70
2022-08-16T23:24:20.532Z,9.93
2022-08-16T23:27:22.849Z,9.40
2022-08-16T23:30:25.551Z,8.50
2022-08-16T23:33:28.254Z,9.73
2022-08-16T23:36:29.845Z,9.00
2022-08-16T23:39:31.560Z,8.80
2022-08-16T23:42:52.452Z,9.17
2022-08-16T23:45:57.028Z,9.10
2022-08-16T23:49:59.217Z,9.03
2022-08-16T23:52:42.142Z,9.27
2022-08-16T23:55:45.357Z,9.83
2022-08-16T23:58:48.699Z,9.37
